sensor_id;sensor_type;location;lat;lon;timestamp;P1;durP1;ratioP1;P2;durP2;ratioP2
76548;SDS011;65391;52.068;4.542;2023-12-20T00:00:41;12.7;;;2.1;;
76548;SDS011;65391;52.068;4.542;2023-12-20T00:03:06;12.7;;;2.1;;
76548;SDS011;65391;52.068;4.542;2023-12-20T00:05:31;12.7;;;2.1;;
76548;SDS011;65391;52.068;4.542;2023-12-20T00:07:56;10.6;;;1.8;;
76548;SDS011;65391;52.068;4.542;2023-12-20T00:10:21;10.6;;;1.8;;
76548;SDS011;65391;52.068;4.542;2023-12-20T00:12:46;10.6;;;1.8;;
76548;SDS011;65391;52.068;4.542;2023-12-20T00:15:11;10.6;;;1.8;;
76548;SDS011;65391;52.068;4.542;2023-12-20T00:17:36;10.6;;;1.8;;
76548;SDS011;65391;52.068;4.542;2023-12-20T00:20:01;9;;;1.6;;
76548;SDS011;65391;52.068;4.542;2023-12-20T00:22:26;9;;;1.6;;
76548;SDS011;65391;52.068;4.542;2023-12-20T00:24:51;9;;;1.6;;
76548;SDS011;65391;52.068;4.542;2023-12-20T00:27:16;9;;;1.6;;
76548;SDS011;65391;52.068;4.542;2023-12-20T00:29:41;12.5;;;2.1;;
76548;SDS011;65391;52.068;4.542;2023-12-20T00:32:06;12.5;;;2.1;;
76548;SDS011;65391;52.068;4.542;2023-12-20T00:34:31;12.5;;;2.1;;
76548;SDS011;65391;52.068;4.542;2023-12-20T00:36:56;12.5;;;2.1;;
76548;SDS011;65391;52.068;4.542;2023-12-20T00:39:21;14.4;;;2.7;;
76548;SDS011;65391;52.068;4.542;2023-12-20T00:41:46;14.4;;;2.7;;
76548;SDS011;65391;52.068;4.542;2023-12-20T00:44:11;14.4;;;2.7;;
76548;SDS011;65391;52.068;4.542;2023-12-20T00:46:36;14.4;;;2.7;;
76548;SDS011;65391;52.068;4.542;2023-12-20T00:49:01;15;;;2.5;;
76548;SDS011;65391;52.068;4.542;2023-12-20T00:51:26;15;;;2.5;;
76548;SDS011;65391;52.068;4.542;2023-12-20T00:53:51;15;;;2.5;;
76548;SDS011;65391;52.068;4.542;2023-12-20T00:56:16;15;;;2.5;;
76548;SDS011;65391;52.068;4.542;2023-12-20T00:58:41;14.5;;;2.4;;
76548;SDS011;65391;52.068;4.542;2023-12-20T01:01:06;14.5;;;2.4;;
76548;SDS011;65391;52.068;4.542;2023-12-20T01:03:31;14.5;;;2.4;;
76548;SDS011;65391;52.068;4.542;2023-12-20T01:05:57;14.5;;;2.4;;
76548;SDS011;65391;52.068;4.542;2023-12-20T01:08:21;12.6;;;2.3;;
76548;SDS011;65391;52.068;4.542;2023-12-20T01:10:46;12.6;;;2.3;;
76548;SDS011;65391;52.068;4.542;2023-12-20T01:13:11;12.6;;;2.3;;
76548;SDS011;65391;52.068;4.542;2023-12-20T01:15:36;12.6;;;2.3;;
76548;SDS011;65391;52.068;4.542;2023-12-20T01:18:01;12.3;;;1.9;;
76548;SDS011;65391;52.068;4.542;2023-12-20T01:20:26;12.3;;;1.9;;
76548;SDS011;65391;52.068;4.542;2023-12-20T01:22:51;12.3;;;1.9;;
76548;SDS011;65391;52.068;4.542;2023-12-20T01:25:16;12.3;;;1.9;;
76548;SDS011;65391;52.068;4.542;2023-12-20T01:27:41;12.3;;;1.9;;
76548;SDS011;65391;52.068;4.542;2023-12-20T01:30:07;8.4;;;1.6;;
76548;SDS011;65391;52.068;4.542;2023-12-20T01:32:31;8.4;;;1.6;;
76548;SDS011;65391;52.068;4.542;2023-12-20T01:34:56;8.4;;;1.6;;
76548;SDS011;65391;52.068;4.542;2023-12-20T01:37:21;8.4;;;1.6;;
76548;SDS011;65391;52.068;4.542;2023-12-20T01:39:46;13.9;;;2.8;;
76548;SDS011;65391;52.068;4.542;2023-12-20T01:42:11;13.9;;;2.8;;
76548;SDS011;65391;52.068;4.542;2023-12-20T01:44:36;13.9;;;2.8;;
76548;SDS011;65391;52.068;4.542;2023-12-20T01:47:01;13.9;;;2.8;;
76548;SDS011;65391;52.068;4.542;2023-12-20T01:49:26;13.5;;;2.2;;
76548;SDS011;65391;52.068;4.542;2023-12-20T01:51:51;13.5;;;2.2;;
76548;SDS011;65391;52.068;4.542;2023-12-20T01:54:16;13.5;;;2.2;;
76548;SDS011;65391;52.068;4.542;2023-12-20T01:56:41;13.5;;;2.2;;
76548;SDS011;65391;52.068;4.542;2023-12-20T01:59:06;13.8;;;2.5;;
76548;SDS011;65391;52.068;4.542;2023-12-20T02:01:31;13.8;;;2.5;;
76548;SDS011;65391;52.068;4.542;2023-12-20T02:03:56;13.8;;;2.5;;
76548;SDS011;65391;52.068;4.542;2023-12-20T02:06:21;13.8;;;2.5;;
76548;SDS011;65391;52.068;4.542;2023-12-20T02:08:46;10.3;;;1.5;;
76548;SDS011;65391;52.068;4.542;2023-12-20T02:11:11;10.3;;;1.5;;
76548;SDS011;65391;52.068;4.542;2023-12-20T02:13:36;10.3;;;1.5;;
76548;SDS011;65391;52.068;4.542;2023-12-20T02:16:01;10.3;;;1.5;;
76548;SDS011;65391;52.068;4.542;2023-12-20T02:18:28;14.3;;;2.6;;
76548;SDS011;65391;52.068;4.542;2023-12-20T02:20:51;14.3;;;2.6;;
76548;SDS011;65391;52.068;4.542;2023-12-20T02:23:16;14.3;;;2.6;;
76548;SDS011;65391;52.068;4.542;2023-12-20T02:25:41;14.3;;;2.6;;
76548;SDS011;65391;52.068;4.542;2023-12-20T02:28:06;13.4;;;2;;
76548;SDS011;65391;52.068;4.542;2023-12-20T02:30:31;13.4;;;2;;
76548;SDS011;65391;52.068;4.542;2023-12-20T02:32:56;13.4;;;2;;
76548;SDS011;65391;52.068;4.542;2023-12-20T02:35:21;13.4;;;2;;
76548;SDS011;65391;52.068;4.542;2023-12-20T02:37:46;13.4;;;2;;
76548;SDS011;65391;52.068;4.542;2023-12-20T02:40:11;15.1;;;2.3;;
76548;SDS011;65391;52.068;4.542;2023-12-20T02:42:36;15.1;;;2.3;;
76548;SDS011;65391;52.068;4.542;2023-12-20T02:45:01;15.1;;;2.3;;
76548;SDS011;65391;52.068;4.542;2023-12-20T02:47:26;15.1;;;2.3;;
76548;SDS011;65391;52.068;4.542;2023-12-20T02:49:51;14.5;;;2.6;;
76548;SDS011;65391;52.068;4.542;2023-12-20T02:52:16;14.5;;;2.6;;
76548;SDS011;65391;52.068;4.542;2023-12-20T02:54:41;14.5;;;2.6;;
76548;SDS011;65391;52.068;4.542;2023-12-20T02:57:06;14.5;;;2.6;;
76548;SDS011;65391;52.068;4.542;2023-12-20T02:59:31;14.4;;;2.3;;
76548;SDS011;65391;52.068;4.542;2023-12-20T03:01:56;14.4;;;2.3;;
76548;SDS011;65391;52.068;4.542;2023-12-20T03:04:21;14.4;;;2.3;;
76548;SDS011;65391;52.068;4.542;2023-12-20T03:06:46;14.4;;;2.3;;
76548;SDS011;65391;52.068;4.542;2023-12-20T03:09:11;11.3;;;2;;
76548;SDS011;65391;52.068;4.542;2023-12-20T03:11:36;11.3;;;2;;
76548;SDS011;65391;52.068;4.542;2023-12-20T03:14:01;11.3;;;2;;
76548;SDS011;65391;52.068;4.542;2023-12-20T03:16:26;11.3;;;2;;
76548;SDS011;65391;52.068;4.542;2023-12-20T03:18:51;15.7;;;2.8;;
76548;SDS011;65391;52.068;4.542;2023-12-20T03:21:16;15.7;;;2.8;;
76548;SDS011;65391;52.068;4.542;2023-12-20T03:23:41;15.7;;;2.8;;
76548;SDS011;65391;52.068;4.542;2023-12-20T03:26:06;15.7;;;2.8;;
76548;SDS011;65391;52.068;4.542;2023-12-20T03:28:31;12.8;;;2;;
76548;SDS011;65391;52.068;4.542;2023-12-20T03:30:56;12.8;;;2;;
76548;SDS011;65391;52.068;4.542;2023-12-20T03:33:21;12.8;;;2;;
76548;SDS011;65391;52.068;4.542;2023-12-20T03:35:46;12.8;;;2;;
76548;SDS011;65391;52.068;4.542;2023-12-20T03:38:11;12.8;;;2;;
76548;SDS011;65391;52.068;4.542;2023-12-20T03:40:36;12.9;;;1.8;;
76548;SDS011;65391;52.068;4.542;2023-12-20T03:43:01;12.9;;;1.8;;
76548;SDS011;65391;52.068;4.542;2023-12-20T03:45:26;12.9;;;1.8;;
76548;SDS011;65391;52.068;4.542;2023-12-20T03:47:51;12.9;;;1.8;;
76548;SDS011;65391;52.068;4.542;2023-12-20T03:50:16;14.7;;;3;;
76548;SDS011;65391;52.068;4.542;2023-12-20T03:52:41;14.7;;;3;;
76548;SDS011;65391;52.068;4.542;2023-12-20T03:55:06;14.7;;;3;;
76548;SDS011;65391;52.068;4.542;2023-12-20T03:57:31;14.7;;;3;;
76548;SDS011;65391;52.068;4.542;2023-12-20T03:59:56;13.8;;;2.8;;
76548;SDS011;65391;52.068;4.542;2023-12-20T04:02:21;13.8;;;2.8;;
76548;SDS011;65391;52.068;4.542;2023-12-20T04:04:46;13.8;;;2.8;;
76548;SDS011;65391;52.068;4.542;2023-12-20T04:07:11;13.8;;;2.8;;
76548;SDS011;65391;52.068;4.542;2023-12-20T04:09:36;8.2;;;1.8;;
76548;SDS011;65391;52.068;4.542;2023-12-20T04:12:01;8.2;;;1.8;;
76548;SDS011;65391;52.068;4.542;2023-12-20T04:14:26;8.2;;;1.8;;
76548;SDS011;65391;52.068;4.542;2023-12-20T04:16:51;8.2;;;1.8;;
76548;SDS011;65391;52.068;4.542;2023-12-20T04:19:16;13.8;;;2.7;;
76548;SDS011;65391;52.068;4.542;2023-12-20T04:21:41;13.8;;;2.7;;
76548;SDS011;65391;52.068;4.542;2023-12-20T04:24:06;13.8;;;2.7;;
76548;SDS011;65391;52.068;4.542;2023-12-20T04:26:31;13.8;;;2.7;;
76548;SDS011;65391;52.068;4.542;2023-12-20T04:28:56;13.9;;;2.3;;
76548;SDS011;65391;52.068;4.542;2023-12-20T04:31:21;13.9;;;2.3;;
76548;SDS011;65391;52.068;4.542;2023-12-20T04:33:46;13.9;;;2.3;;
76548;SDS011;65391;52.068;4.542;2023-12-20T04:36:11;13.9;;;2.3;;
76548;SDS011;65391;52.068;4.542;2023-12-20T04:38:36;11.2;;;2.7;;
76548;SDS011;65391;52.068;4.542;2023-12-20T04:41:01;11.2;;;2.7;;
76548;SDS011;65391;52.068;4.542;2023-12-20T04:43:26;11.2;;;2.7;;
76548;SDS011;65391;52.068;4.542;2023-12-20T04:45:51;11.2;;;2.7;;
76548;SDS011;65391;52.068;4.542;2023-12-20T04:48:16;11.2;;;2.7;;
76548;SDS011;65391;52.068;4.542;2023-12-20T04:50:41;12.1;;;2.5;;
76548;SDS011;65391;52.068;4.542;2023-12-20T04:53:06;12.1;;;2.5;;
76548;SDS011;65391;52.068;4.542;2023-12-20T04:55:31;12.1;;;2.5;;
76548;SDS011;65391;52.068;4.542;2023-12-20T04:57:56;12.1;;;2.5;;
76548;SDS011;65391;52.068;4.542;2023-12-20T05:00:21;14.1;;;2.3;;
76548;SDS011;65391;52.068;4.542;2023-12-20T05:02:46;14.1;;;2.3;;
76548;SDS011;65391;52.068;4.542;2023-12-20T05:05:11;14.1;;;2.3;;
76548;SDS011;65391;52.068;4.542;2023-12-20T05:07:36;14.1;;;2.3;;
76548;SDS011;65391;52.068;4.542;2023-12-20T05:10:02;14.9;;;2.2;;
76548;SDS011;65391;52.068;4.542;2023-12-20T05:12:26;14.9;;;2.2;;
76548;SDS011;65391;52.068;4.542;2023-12-20T05:14:51;14.9;;;2.2;;
76548;SDS011;65391;52.068;4.542;2023-12-20T05:17:16;14.9;;;2.2;;
76548;SDS011;65391;52.068;4.542;2023-12-20T05:19:41;11.4;;;2.1;;
76548;SDS011;65391;52.068;4.542;2023-12-20T05:22:06;11.4;;;2.1;;
76548;SDS011;65391;52.068;4.542;2023-12-20T05:24:31;11.4;;;2.1;;
76548;SDS011;65391;52.068;4.542;2023-12-20T05:26:56;11.4;;;2.1;;
76548;SDS011;65391;52.068;4.542;2023-12-20T05:29:21;12.7;;;1.9;;
76548;SDS011;65391;52.068;4.542;2023-12-20T05:31:46;12.7;;;1.9;;
76548;SDS011;65391;52.068;4.542;2023-12-20T05:34:11;12.7;;;1.9;;
76548;SDS011;65391;52.068;4.542;2023-12-20T05:36:36;12.7;;;1.9;;
76548;SDS011;65391;52.068;4.542;2023-12-20T05:39:01;14.8;;;2.7;;
76548;SDS011;65391;52.068;4.542;2023-12-20T05:41:26;14.8;;;2.7;;
76548;SDS011;65391;52.068;4.542;2023-12-20T05:43:51;14.8;;;2.7;;
76548;SDS011;65391;52.068;4.542;2023-12-20T05:46:16;14.8;;;2.7;;
76548;SDS011;65391;52.068;4.542;2023-12-20T05:48:41;14;;;2.8;;
76548;SDS011;65391;52.068;4.542;2023-12-20T05:51:06;14;;;2.8;;
76548;SDS011;65391;52.068;4.542;2023-12-20T05:53:31;14;;;2.8;;
76548;SDS011;65391;52.068;4.542;2023-12-20T05:55:56;14;;;2.8;;
76548;SDS011;65391;52.068;4.542;2023-12-20T05:58:21;14;;;2.8;;
76548;SDS011;65391;52.068;4.542;2023-12-20T06:00:46;14.7;;;2.7;;
76548;SDS011;65391;52.068;4.542;2023-12-20T06:03:11;14.7;;;2.7;;
76548;SDS011;65391;52.068;4.542;2023-12-20T06:05:36;14.7;;;2.7;;
76548;SDS011;65391;52.068;4.542;2023-12-20T06:08:01;14.7;;;2.7;;
76548;SDS011;65391;52.068;4.542;2023-12-20T06:10:26;14.3;;;3.1;;
76548;SDS011;65391;52.068;4.542;2023-12-20T06:12:51;14.3;;;3.1;;
76548;SDS011;65391;52.068;4.542;2023-12-20T06:15:16;14.3;;;3.1;;
76548;SDS011;65391;52.068;4.542;2023-12-20T06:17:41;14.3;;;3.1;;
76548;SDS011;65391;52.068;4.542;2023-12-20T06:20:07;11.5;;;2.2;;
76548;SDS011;65391;52.068;4.542;2023-12-20T06:22:31;11.5;;;2.2;;
76548;SDS011;65391;52.068;4.542;2023-12-20T06:24:56;11.5;;;2.2;;
76548;SDS011;65391;52.068;4.542;2023-12-20T06:27:21;11.5;;;2.2;;
76548;SDS011;65391;52.068;4.542;2023-12-20T06:29:46;13.3;;;2.5;;
76548;SDS011;65391;52.068;4.542;2023-12-20T06:32:11;13.3;;;2.5;;
76548;SDS011;65391;52.068;4.542;2023-12-20T06:34:36;13.3;;;2.5;;
76548;SDS011;65391;52.068;4.542;2023-12-20T06:37:01;13.3;;;2.5;;
76548;SDS011;65391;52.068;4.542;2023-12-20T06:39:26;14.3;;;2.6;;
76548;SDS011;65391;52.068;4.542;2023-12-20T06:41:51;14.3;;;2.6;;
76548;SDS011;65391;52.068;4.542;2023-12-20T06:44:16;14.3;;;2.6;;
76548;SDS011;65391;52.068;4.542;2023-12-20T06:46:41;14.3;;;2.6;;
76548;SDS011;65391;52.068;4.542;2023-12-20T06:49:06;11.6;;;1.9;;
76548;SDS011;65391;52.068;4.542;2023-12-20T06:51:31;11.6;;;1.9;;
76548;SDS011;65391;52.068;4.542;2023-12-20T06:53:56;11.6;;;1.9;;
76548;SDS011;65391;52.068;4.542;2023-12-20T06:56:21;11.6;;;1.9;;
76548;SDS011;65391;52.068;4.542;2023-12-20T06:58:46;15.3;;;2.5;;
76548;SDS011;65391;52.068;4.542;2023-12-20T07:01:11;15.3;;;2.5;;
76548;SDS011;65391;52.068;4.542;2023-12-20T07:03:36;15.3;;;2.5;;
76548;SDS011;65391;52.068;4.542;2023-12-20T07:06:01;15.3;;;2.5;;
76548;SDS011;65391;52.068;4.542;2023-12-20T07:08:26;15.3;;;2.5;;
76548;SDS011;65391;52.068;4.542;2023-12-20T07:10:51;14.1;;;2.6;;
76548;SDS011;65391;52.068;4.542;2023-12-20T07:13:16;14.1;;;2.6;;
76548;SDS011;65391;52.068;4.542;2023-12-20T07:15:41;14.1;;;2.6;;
76548;SDS011;65391;52.068;4.542;2023-12-20T07:18:06;14.1;;;2.6;;
76548;SDS011;65391;52.068;4.542;2023-12-20T07:20:31;10.4;;;2.8;;
76548;SDS011;65391;52.068;4.542;2023-12-20T07:22:56;10.4;;;2.8;;
76548;SDS011;65391;52.068;4.542;2023-12-20T07:25:21;10.4;;;2.8;;
76548;SDS011;65391;52.068;4.542;2023-12-20T07:27:46;10.4;;;2.8;;
76548;SDS011;65391;52.068;4.542;2023-12-20T07:30:11;14.7;;;2.2;;
76548;SDS011;65391;52.068;4.542;2023-12-20T07:32:36;14.7;;;2.2;;
76548;SDS011;65391;52.068;4.542;2023-12-20T07:35:01;14.7;;;2.2;;
76548;SDS011;65391;52.068;4.542;2023-12-20T07:37:26;14.7;;;2.2;;
76548;SDS011;65391;52.068;4.542;2023-12-20T07:39:51;13.1;;;2.3;;
76548;SDS011;65391;52.068;4.542;2023-12-20T07:42:16;13.1;;;2.3;;
76548;SDS011;65391;52.068;4.542;2023-12-20T07:44:41;13.1;;;2.3;;
76548;SDS011;65391;52.068;4.542;2023-12-20T07:47:06;13.1;;;2.3;;
76548;SDS011;65391;52.068;4.542;2023-12-20T07:49:31;14.1;;;3.5;;
76548;SDS011;65391;52.068;4.542;2023-12-20T07:51:56;14.1;;;3.5;;
76548;SDS011;65391;52.068;4.542;2023-12-20T07:54:21;14.1;;;3.5;;
76548;SDS011;65391;52.068;4.542;2023-12-20T07:56:48;14.1;;;3.5;;
76548;SDS011;65391;52.068;4.542;2023-12-20T07:59:11;13.8;;;2.3;;
76548;SDS011;65391;52.068;4.542;2023-12-20T08:01:36;13.8;;;2.3;;
76548;SDS011;65391;52.068;4.542;2023-12-20T08:04:01;13.8;;;2.3;;
76548;SDS011;65391;52.068;4.542;2023-12-20T08:06:26;13.8;;;2.3;;
76548;SDS011;65391;52.068;4.542;2023-12-20T08:08:51;15;;;2.4;;
76548;SDS011;65391;52.068;4.542;2023-12-20T08:11:16;15;;;2.4;;
76548;SDS011;65391;52.068;4.542;2023-12-20T08:13:42;15;;;2.4;;
76548;SDS011;65391;52.068;4.542;2023-12-20T08:16:06;15;;;2.4;;
76548;SDS011;65391;52.068;4.542;2023-12-20T08:18:31;15;;;2.4;;
76548;SDS011;65391;52.068;4.542;2023-12-20T08:20:56;14.8;;;2.4;;
76548;SDS011;65391;52.068;4.542;2023-12-20T08:23:21;14.8;;;2.4;;
76548;SDS011;65391;52.068;4.542;2023-12-20T08:25:46;14.8;;;2.4;;
76548;SDS011;65391;52.068;4.542;2023-12-20T08:28:11;14.8;;;2.4;;
76548;SDS011;65391;52.068;4.542;2023-12-20T08:30:36;10.1;;;2.3;;
76548;SDS011;65391;52.068;4.542;2023-12-20T08:33:01;10.1;;;2.3;;
76548;SDS011;65391;52.068;4.542;2023-12-20T08:35:26;10.1;;;2.3;;
76548;SDS011;65391;52.068;4.542;2023-12-20T08:37:51;10.1;;;2.3;;
76548;SDS011;65391;52.068;4.542;2023-12-20T08:40:16;8.4;;;2.3;;
76548;SDS011;65391;52.068;4.542;2023-12-20T08:42:41;8.4;;;2.3;;
76548;SDS011;65391;52.068;4.542;2023-12-20T08:45:07;8.4;;;2.3;;
76548;SDS011;65391;52.068;4.542;2023-12-20T08:47:31;8.4;;;2.3;;
76548;SDS011;65391;52.068;4.542;2023-12-20T08:49:56;13.9;;;2.3;;
76548;SDS011;65391;52.068;4.542;2023-12-20T08:52:21;13.9;;;2.3;;
76548;SDS011;65391;52.068;4.542;2023-12-20T08:54:46;13.9;;;2.3;;
76548;SDS011;65391;52.068;4.542;2023-12-20T08:57:11;13.9;;;2.3;;
76548;SDS011;65391;52.068;4.542;2023-12-20T08:59:36;13.1;;;2;;
76548;SDS011;65391;52.068;4.542;2023-12-20T09:02:01;13.1;;;2;;
76548;SDS011;65391;52.068;4.542;2023-12-20T09:04:26;13.1;;;2;;
76548;SDS011;65391;52.068;4.542;2023-12-20T09:06:51;13.1;;;2;;
76548;SDS011;65391;52.068;4.542;2023-12-20T09:09:16;12.6;;;2.2;;
76548;SDS011;65391;52.068;4.542;2023-12-20T09:11:41;12.6;;;2.2;;
76548;SDS011;65391;52.068;4.542;2023-12-20T09:14:06;12.6;;;2.2;;
76548;SDS011;65391;52.068;4.542;2023-12-20T09:16:31;12.6;;;2.2;;
76548;SDS011;65391;52.068;4.542;2023-12-20T09:18:56;13.8;;;2.8;;
76548;SDS011;65391;52.068;4.542;2023-12-20T09:21:21;13.8;;;2.8;;
76548;SDS011;65391;52.068;4.542;2023-12-20T09:23:46;13.8;;;2.8;;
76548;SDS011;65391;52.068;4.542;2023-12-20T09:26:11;13.8;;;2.8;;
76548;SDS011;65391;52.068;4.542;2023-12-20T09:28:36;13.8;;;2.8;;
76548;SDS011;65391;52.068;4.542;2023-12-20T09:31:01;13.3;;;2.4;;
76548;SDS011;65391;52.068;4.542;2023-12-20T09:33:26;13.3;;;2.4;;
76548;SDS011;65391;52.068;4.542;2023-12-20T09:35:51;13.3;;;2.4;;
76548;SDS011;65391;52.068;4.542;2023-12-20T09:38:16;13.3;;;2.4;;
76548;SDS011;65391;52.068;4.542;2023-12-20T09:40:41;9.2;;;1.2;;
76548;SDS011;65391;52.068;4.542;2023-12-20T09:43:08;9.2;;;1.2;;
76548;SDS011;65391;52.068;4.542;2023-12-20T09:45:31;9.2;;;1.2;;
76548;SDS011;65391;52.068;4.542;2023-12-20T09:47:56;9.2;;;1.2;;
76548;SDS011;65391;52.068;4.542;2023-12-20T09:50:21;16.3;;;3.1;;
76548;SDS011;65391;52.068;4.542;2023-12-20T09:52:49;16.3;;;3.1;;
76548;SDS011;65391;52.068;4.542;2023-12-20T09:55:11;16.3;;;3.1;;
76548;SDS011;65391;52.068;4.542;2023-12-20T09:57:36;16.3;;;3.1;;
76548;SDS011;65391;52.068;4.542;2023-12-20T10:00:01;10;;;1.9;;
76548;SDS011;65391;52.068;4.542;2023-12-20T10:02:26;10;;;1.9;;
76548;SDS011;65391;52.068;4.542;2023-12-20T10:04:51;10;;;1.9;;
76548;SDS011;65391;52.068;4.542;2023-12-20T10:07:17;10;;;1.9;;
76548;SDS011;65391;52.068;4.542;2023-12-20T10:09:41;10.5;;;1.6;;
76548;SDS011;65391;52.068;4.542;2023-12-20T10:12:06;10.5;;;1.6;;
76548;SDS011;65391;52.068;4.542;2023-12-20T10:14:32;10.5;;;1.6;;
76548;SDS011;65391;52.068;4.542;2023-12-20T10:17:02;10.5;;;1.6;;
76548;SDS011;65391;52.068;4.542;2023-12-20T10:19:21;14.7;;;2.3;;
76548;SDS011;65391;52.068;4.542;2023-12-20T10:21:46;14.7;;;2.3;;
76548;SDS011;65391;52.068;4.542;2023-12-20T10:24:16;14.7;;;2.3;;
76548;SDS011;65391;52.068;4.542;2023-12-20T10:26:36;14.7;;;2.3;;
76548;SDS011;65391;52.068;4.542;2023-12-20T10:29:01;14.8;;;3.6;;
76548;SDS011;65391;52.068;4.542;2023-12-20T10:31:27;14.8;;;3.6;;
76548;SDS011;65391;52.068;4.542;2023-12-20T10:33:51;14.8;;;3.6;;
76548;SDS011;65391;52.068;4.542;2023-12-20T10:36:16;14.8;;;3.6;;
76548;SDS011;65391;52.068;4.542;2023-12-20T10:38:41;14.8;;;3.6;;
76548;SDS011;65391;52.068;4.542;2023-12-20T10:41:06;14.5;;;2.7;;
76548;SDS011;65391;52.068;4.542;2023-12-20T10:43:31;14.5;;;2.7;;
76548;SDS011;65391;52.068;4.542;2023-12-20T10:45:56;14.5;;;2.7;;
76548;SDS011;65391;52.068;4.542;2023-12-20T10:48:21;14.5;;;2.7;;
76548;SDS011;65391;52.068;4.542;2023-12-20T10:50:46;12.9;;;2;;
76548;SDS011;65391;52.068;4.542;2023-12-20T10:53:11;12.9;;;2;;
76548;SDS011;65391;52.068;4.542;2023-12-20T10:55:37;12.9;;;2;;
76548;SDS011;65391;52.068;4.542;2023-12-20T10:58:05;12.9;;;2;;
76548;SDS011;65391;52.068;4.542;2023-12-20T11:00:26;10;;;2.7;;
76548;SDS011;65391;52.068;4.542;2023-12-20T11:02:51;10;;;2.7;;
76548;SDS011;65391;52.068;4.542;2023-12-20T11:05:22;10;;;2.7;;
76548;SDS011;65391;52.068;4.542;2023-12-20T11:07:43;10;;;2.7;;
76548;SDS011;65391;52.068;4.542;2023-12-20T11:10:10;8.2;;;1.1;;
76548;SDS011;65391;52.068;4.542;2023-12-20T11:12:35;8.2;;;1.1;;
76548;SDS011;65391;52.068;4.542;2023-12-20T11:14:57;8.2;;;1.1;;
76548;SDS011;65391;52.068;4.542;2023-12-20T11:17:21;8.2;;;1.1;;
76548;SDS011;65391;52.068;4.542;2023-12-20T11:20:04;12.9;;;2.3;;
76548;SDS011;65391;52.068;4.542;2023-12-20T11:22:11;12.9;;;2.3;;
76548;SDS011;65391;52.068;4.542;2023-12-20T11:24:38;12.9;;;2.3;;
76548;SDS011;65391;52.068;4.542;2023-12-20T11:27:01;12.9;;;2.3;;
76548;SDS011;65391;52.068;4.542;2023-12-20T11:29:31;14.6;;;3.1;;
76548;SDS011;65391;52.068;4.542;2023-12-20T11:31:51;14.6;;;3.1;;
76548;SDS011;65391;52.068;4.542;2023-12-20T11:34:16;14.6;;;3.1;;
76548;SDS011;65391;52.068;4.542;2023-12-20T11:36:41;14.6;;;3.1;;
76548;SDS011;65391;52.068;4.542;2023-12-20T11:39:06;9.9;;;2.1;;
76548;SDS011;65391;52.068;4.542;2023-12-20T11:41:31;9.9;;;2.1;;
76548;SDS011;65391;52.068;4.542;2023-12-20T11:43:56;9.9;;;2.1;;
76548;SDS011;65391;52.068;4.542;2023-12-20T11:46:21;9.9;;;2.1;;
76548;SDS011;65391;52.068;4.542;2023-12-20T11:48:46;9.9;;;2.1;;
76548;SDS011;65391;52.068;4.542;2023-12-20T11:51:12;12.3;;;2.1;;
76548;SDS011;65391;52.068;4.542;2023-12-20T11:53:36;12.3;;;2.1;;
76548;SDS011;65391;52.068;4.542;2023-12-20T11:56:02;12.3;;;2.1;;
76548;SDS011;65391;52.068;4.542;2023-12-20T11:58:26;12.3;;;2.1;;
76548;SDS011;65391;52.068;4.542;2023-12-20T12:00:51;14;;;2.2;;
76548;SDS011;65391;52.068;4.542;2023-12-20T12:03:16;14;;;2.2;;
76548;SDS011;65391;52.068;4.542;2023-12-20T12:05:41;14;;;2.2;;
76548;SDS011;65391;52.068;4.542;2023-12-20T12:08:06;14;;;2.2;;
76548;SDS011;65391;52.068;4.542;2023-12-20T12:10:31;14.7;;;2.2;;
76548;SDS011;65391;52.068;4.542;2023-12-20T12:12:56;14.7;;;2.2;;
76548;SDS011;65391;52.068;4.542;2023-12-20T12:15:21;14.7;;;2.2;;
76548;SDS011;65391;52.068;4.542;2023-12-20T12:17:52;14.7;;;2.2;;
76548;SDS011;65391;52.068;4.542;2023-12-20T12:20:11;10.4;;;2.2;;
76548;SDS011;65391;52.068;4.542;2023-12-20T12:22:36;10.4;;;2.2;;
76548;SDS011;65391;52.068;4.542;2023-12-20T12:25:09;10.4;;;2.2;;
76548;SDS011;65391;52.068;4.542;2023-12-20T12:27:27;10.4;;;2.2;;
76548;SDS011;65391;52.068;4.542;2023-12-20T12:30:07;10.4;;;2;;
76548;SDS011;65391;52.068;4.542;2023-12-20T12:32:16;10.4;;;2;;
76548;SDS011;65391;52.068;4.542;2023-12-20T12:34:41;10.4;;;2;;
76548;SDS011;65391;52.068;4.542;2023-12-20T12:37:06;10.4;;;2;;
76548;SDS011;65391;52.068;4.542;2023-12-20T12:39:31;5.9;;;1;;
76548;SDS011;65391;52.068;4.542;2023-12-20T12:41:56;5.9;;;1;;
76548;SDS011;65391;52.068;4.542;2023-12-20T12:44:21;5.9;;;1;;
76548;SDS011;65391;52.068;4.542;2023-12-20T12:46:46;5.9;;;1;;
76548;SDS011;65391;52.068;4.542;2023-12-20T12:49:11;8.7;;;2;;
76548;SDS011;65391;52.068;4.542;2023-12-20T12:51:36;8.7;;;2;;
76548;SDS011;65391;52.068;4.542;2023-12-20T12:54:02;8.7;;;2;;
76548;SDS011;65391;52.068;4.542;2023-12-20T12:56:26;8.7;;;2;;
76548;SDS011;65391;52.068;4.542;2023-12-20T12:58:51;8.7;;;2;;
76548;SDS011;65391;52.068;4.542;2023-12-20T13:01:16;9.7;;;1.1;;
76548;SDS011;65391;52.068;4.542;2023-12-20T13:03:41;9.7;;;1.1;;
76548;SDS011;65391;52.068;4.542;2023-12-20T13:06:06;9.7;;;1.1;;
76548;SDS011;65391;52.068;4.542;2023-12-20T13:08:31;9.7;;;1.1;;
76548;SDS011;65391;52.068;4.542;2023-12-20T13:10:56;14.2;;;2.1;;
76548;SDS011;65391;52.068;4.542;2023-12-20T13:13:21;14.2;;;2.1;;
76548;SDS011;65391;52.068;4.542;2023-12-20T13:15:46;14.2;;;2.1;;
76548;SDS011;65391;52.068;4.542;2023-12-20T13:18:11;14.2;;;2.1;;
76548;SDS011;65391;52.068;4.542;2023-12-20T13:20:36;10.2;;;1.9;;
76548;SDS011;65391;52.068;4.542;2023-12-20T13:23:02;10.2;;;1.9;;
76548;SDS011;65391;52.068;4.542;2023-12-20T13:25:26;10.2;;;1.9;;
76548;SDS011;65391;52.068;4.542;2023-12-20T13:27:53;10.2;;;1.9;;
76548;SDS011;65391;52.068;4.542;2023-12-20T13:30:17;15.3;;;3.8;;
76548;SDS011;65391;52.068;4.542;2023-12-20T13:32:41;15.3;;;3.8;;
76548;SDS011;65391;52.068;4.542;2023-12-20T13:35:07;15.3;;;3.8;;
76548;SDS011;65391;52.068;4.542;2023-12-20T13:37:31;15.3;;;3.8;;
76548;SDS011;65391;52.068;4.542;2023-12-20T13:39:56;12.2;;;1.6;;
76548;SDS011;65391;52.068;4.542;2023-12-20T13:42:21;12.2;;;1.6;;
76548;SDS011;65391;52.068;4.542;2023-12-20T13:44:46;12.2;;;1.6;;
76548;SDS011;65391;52.068;4.542;2023-12-20T13:47:12;12.2;;;1.6;;
76548;SDS011;65391;52.068;4.542;2023-12-20T13:49:36;14.7;;;2.8;;
76548;SDS011;65391;52.068;4.542;2023-12-20T13:52:02;14.7;;;2.8;;
76548;SDS011;65391;52.068;4.542;2023-12-20T13:54:26;14.7;;;2.8;;
76548;SDS011;65391;52.068;4.542;2023-12-20T13:56:51;14.7;;;2.8;;
76548;SDS011;65391;52.068;4.542;2023-12-20T13:59:16;11.4;;;2;;
76548;SDS011;65391;52.068;4.542;2023-12-20T14:01:41;11.4;;;2;;
76548;SDS011;65391;52.068;4.542;2023-12-20T14:04:07;11.4;;;2;;
76548;SDS011;65391;52.068;4.542;2023-12-20T14:06:31;11.4;;;2;;
76548;SDS011;65391;52.068;4.542;2023-12-20T14:08:56;11.4;;;2;;
76548;SDS011;65391;52.068;4.542;2023-12-20T14:11:21;11.5;;;2.1;;
76548;SDS011;65391;52.068;4.542;2023-12-20T14:13:47;11.5;;;2.1;;
76548;SDS011;65391;52.068;4.542;2023-12-20T14:16:12;11.5;;;2.1;;
76548;SDS011;65391;52.068;4.542;2023-12-20T14:18:36;11.5;;;2.1;;
76548;SDS011;65391;52.068;4.542;2023-12-20T14:21:02;14.2;;;2.3;;
76548;SDS011;65391;52.068;4.542;2023-12-20T14:23:26;14.2;;;2.3;;
76548;SDS011;65391;52.068;4.542;2023-12-20T14:25:52;14.2;;;2.3;;
76548;SDS011;65391;52.068;4.542;2023-12-20T14:28:17;14.2;;;2.3;;
76548;SDS011;65391;52.068;4.542;2023-12-20T14:30:42;14.2;;;2.7;;
76548;SDS011;65391;52.068;4.542;2023-12-20T14:33:07;14.2;;;2.7;;
76548;SDS011;65391;52.068;4.542;2023-12-20T14:35:31;14.2;;;2.7;;
76548;SDS011;65391;52.068;4.542;2023-12-20T14:37:56;14.2;;;2.7;;
76548;SDS011;65391;52.068;4.542;2023-12-20T14:40:22;15;;;2.6;;
76548;SDS011;65391;52.068;4.542;2023-12-20T14:42:47;15;;;2.6;;
76548;SDS011;65391;52.068;4.542;2023-12-20T14:45:12;15;;;2.6;;
76548;SDS011;65391;52.068;4.542;2023-12-20T14:47:37;15;;;2.6;;
76548;SDS011;65391;52.068;4.542;2023-12-20T14:50:02;12.3;;;1.8;;
76548;SDS011;65391;52.068;4.542;2023-12-20T14:52:27;12.3;;;1.8;;
76548;SDS011;65391;52.068;4.542;2023-12-20T14:54:52;12.3;;;1.8;;